sensor_id;sensor_type;location;lat;lon;timestamp;temperature;humidity
18948;DHT22;9607;51.600;7.558;2023-04-04T00:01:09;0.00;99.90
18948;DHT22;9607;51.600;7.558;2023-04-04T00:03:37;0.00;99.90
18948;DHT22;9607;51.600;7.558;2023-04-04T00:06:04;-0.10;99.90
18948;DHT22;9607;51.600;7.558;2023-04-04T00:08:32;-0.10;99.90
18948;DHT22;9607;51.600;7.558;2023-04-04T00:10:59;-0.10;99.90
18948;DHT22;9607;51.600;7.558;2023-04-04T00:13:26;-0.10;99.90
18948;DHT22;9607;51.600;7.558;2023-04-04T00:15:53;-0.10;99.90
18948;DHT22;9607;51.600;7.558;2023-04-04T00:18:20;-0.10;99.90
18948;DHT22;9607;51.600;7.558;2023-04-04T00:20:47;-0.20;99.90
18948;DHT22;9607;51.600;7.558;2023-04-04T00:23:13;-0.20;99.90
18948;DHT22;9607;51.600;7.558;2023-04-04T00:25:42;-0.30;99.90
18948;DHT22;9607;51.600;7.558;2023-04-04T00:28:08;-0.30;99.90
18948;DHT22;9607;51.600;7.558;2023-04-04T00:30:35;-0.30;99.90
18948;DHT22;9607;51.600;7.558;2023-04-04T00:33:02;-0.30;99.90
18948;DHT22;9607;51.600;7.558;2023-04-04T00:35:29;-0.30;99.90
18948;DHT22;9607;51.600;7.558;2023-04-04T00:37:56;-0.30;99.90
18948;DHT22;9607;51.600;7.558;2023-04-04T00:40:22;-0.30;99.90
18948;DHT22;9607;51.600;7.558;2023-04-04T00:42:50;-0.30;99.90
18948;DHT22;9607;51.600;7.558;2023-04-04T00:45:18;-0.30;99.90
18948;DHT22;9607;51.600;7.558;2023-04-04T00:47:46;-0.30;99.90
18948;DHT22;9607;51.600;7.558;2023-04-04T00:50:13;-0.30;99.90
18948;DHT22;9607;51.600;7.558;2023-04-04T00:52:39;-0.30;99.90
18948;DHT22;9607;51.600;7.558;2023-04-04T00:55:07;-0.40;99.90
18948;DHT22;9607;51.600;7.558;2023-04-04T00:57:34;-0.40;99.90
18948;DHT22;9607;51.600;7.558;2023-04-04T01:00:03;-0.50;99.90
18948;DHT22;9607;51.600;7.558;2023-04-04T01:02:31;-0.50;99.90
18948;DHT22;9607;51.600;7.558;2023-04-04T01:04:58;-0.60;99.90
18948;DHT22;9607;51.600;7.558;2023-04-04T01:07:25;-0.70;99.90
18948;DHT22;9607;51.600;7.558;2023-04-04T01:09:55;-0.70;99.90
18948;DHT22;9607;51.600;7.558;2023-04-04T01:12:22;-0.80;99.90
18948;DHT22;9607;51.600;7.558;2023-04-04T01:14:49;-0.80;99.90
18948;DHT22;9607;51.600;7.558;2023-04-04T01:17:17;-0.90;99.90
18948;DHT22;9607;51.600;7.558;2023-04-04T01:19:48;-0.90;99.90
18948;DHT22;9607;51.600;7.558;2023-04-04T01:22:19;-0.90;99.90
18948;DHT22;9607;51.600;7.558;2023-04-04T01:24:48;-1.00;99.90
18948;DHT22;9607;51.600;7.558;2023-04-04T01:27:16;-1.00;99.90
18948;DHT22;9607;51.600;7.558;2023-04-04T01:29:43;-1.10;99.90
18948;DHT22;9607;51.600;7.558;2023-04-04T01:32:12;-1.10;99.90
18948;DHT22;9607;51.600;7.558;2023-04-04T01:34:45;-1.10;99.90
18948;DHT22;9607;51.600;7.558;2023-04-04T01:37:20;-1.10;99.90
18948;DHT22;9607;51.600;7.558;2023-04-04T01:39:52;-1.20;99.90
18948;DHT22;9607;51.600;7.558;2023-04-04T01:42:22;-1.20;99.90
18948;DHT22;9607;51.600;7.558;2023-04-04T01:44:53;-1.20;99.90
18948;DHT22;9607;51.600;7.558;2023-04-04T01:47:20;-1.20;99.90
18948;DHT22;9607;51.600;7.558;2023-04-04T01:49:48;-1.20;99.90
18948;DHT22;9607;51.600;7.558;2023-04-04T01:52:14;-1.20;99.90
18948;DHT22;9607;51.600;7.558;2023-04-04T01:54:42;-1.20;99.90
18948;DHT22;9607;51.600;7.558;2023-04-04T01:57:08;-1.20;99.90
18948;DHT22;9607;51.600;7.558;2023-04-04T01:59:36;-1.20;99.90
18948;DHT22;9607;51.600;7.558;2023-04-04T02:02:03;-1.30;99.90
18948;DHT22;9607;51.600;7.558;2023-04-04T02:04:30;-1.30;99.90
18948;DHT22;9607;51.600;7.558;2023-04-04T02:06:58;-1.40;99.90
18948;DHT22;9607;51.600;7.558;2023-04-04T02:09:24;-1.40;99.90
18948;DHT22;9607;51.600;7.558;2023-04-04T02:11:51;-1.40;99.90
18948;DHT22;9607;51.600;7.558;2023-04-04T02:14:18;-1.40;99.90
18948;DHT22;9607;51.600;7.558;2023-04-04T02:16:47;-1.40;99.90
18948;DHT22;9607;51.600;7.558;2023-04-04T02:19:14;-1.40;99.90
18948;DHT22;9607;51.600;7.558;2023-04-04T02:21:41;-1.40;99.90
18948;DHT22;9607;51.600;7.558;2023-04-04T02:24:08;-1.40;99.90
18948;DHT22;9607;51.600;7.558;2023-04-04T02:26:35;-1.40;99.90
18948;DHT22;9607;51.600;7.558;2023-04-04T02:29:01;-1.40;99.90
18948;DHT22;9607;51.600;7.558;2023-04-04T02:31:28;-1.40;99.90
18948;DHT22;9607;51.600;7.558;2023-04-04T02:33:57;-1.40;99.90
18948;DHT22;9607;51.600;7.558;2023-04-04T02:36:23;-1.40;99.90
18948;DHT22;9607;51.600;7.558;2023-04-04T02:38:50;-1.40;99.90
18948;DHT22;9607;51.600;7.558;2023-04-04T02:41:17;-1.40;99.90
18948;DHT22;9607;51.600;7.558;2023-04-04T02:43:44;-1.30;99.90
18948;DHT22;9607;51.600;7.558;2023-04-04T02:46:10;-1.30;99.90
18948;DHT22;9607;51.600;7.558;2023-04-04T02:48:37;-1.30;99.90
18948;DHT22;9607;51.600;7.558;2023-04-04T02:51:05;-1.30;99.90
18948;DHT22;9607;51.600;7.558;2023-04-04T02:53:32;-1.30;99.90
18948;DHT22;9607;51.600;7.558;2023-04-04T02:56:01;-1.30;99.90
18948;DHT22;9607;51.600;7.558;2023-04-04T02:58:28;-1.40;99.90
18948;DHT22;9607;51.600;7.558;2023-04-04T03:00:55;-1.40;99.90
18948;DHT22;9607;51.600;7.558;2023-04-04T03:03:21;-1.40;99.90
18948;DHT22;9607;51.600;7.558;2023-04-04T03:05:49;-1.40;99.90
18948;DHT22;9607;51.600;7.558;2023-04-04T03:08:18;-1.30;99.90
18948;DHT22;9607;51.600;7.558;2023-04-04T03:10:44;-1.30;99.90
18948;DHT22;9607;51.600;7.558;2023-04-04T03:13:11;-1.30;99.90
18948;DHT22;9607;51.600;7.558;2023-04-04T03:15:38;-1.30;99.90
18948;DHT22;9607;51.600;7.558;2023-04-04T03:18:06;-1.30;99.90
18948;DHT22;9607;51.600;7.558;2023-04-04T03:20:33;-1.30;99.90
18948;DHT22;9607;51.600;7.558;2023-04-04T03:23:00;-1.30;99.90
18948;DHT22;9607;51.600;7.558;2023-04-04T03:25:28;-1.40;99.90
18948;DHT22;9607;51.600;7.558;2023-04-04T03:27:57;-1.40;99.90
18948;DHT22;9607;51.600;7.558;2023-04-04T03:30:24;-1.40;99.90
18948;DHT22;9607;51.600;7.558;2023-04-04T03:32:50;-1.40;99.90
18948;DHT22;9607;51.600;7.558;2023-04-04T03:35:17;-1.50;99.90
18948;DHT22;9607;51.600;7.558;2023-04-04T03:37:44;-1.50;99.90
18948;DHT22;9607;51.600;7.558;2023-04-04T03:40:11;-1.60;99.90
18948;DHT22;9607;51.600;7.558;2023-04-04T03:42:40;-1.70;99.90
18948;DHT22;9607;51.600;7.558;2023-04-04T03:45:07;-1.70;99.90
18948;DHT22;9607;51.600;7.558;2023-04-04T03:47:35;-1.80;99.90
18948;DHT22;9607;51.600;7.558;2023-04-04T03:50:01;-1.90;99.90
18948;DHT22;9607;51.600;7.558;2023-04-04T03:52:28;-1.90;99.90
18948;DHT22;9607;51.600;7.558;2023-04-04T03:54:55;-1.90;99.90
18948;DHT22;9607;51.600;7.558;2023-04-04T03:57:22;-1.90;99.90
18948;DHT22;9607;51.600;7.558;2023-04-04T03:59:50;-2.00;99.90
18948;DHT22;9607;51.600;7.558;2023-04-04T04:02:17;-2.00;99.90
18948;DHT22;9607;51.600;7.558;2023-04-04T04:04:43;-2.10;99.90
18948;DHT22;9607;51.600;7.558;2023-04-04T04:07:10;-2.10;99.90
18948;DHT22;9607;51.600;7.558;2023-04-04T04:09:37;-2.10;99.90
18948;DHT22;9607;51.600;7.558;2023-04-04T04:12:04;-2.10;99.90
18948;DHT22;9607;51.600;7.558;2023-04-04T04:14:31;-2.00;99.90
18948;DHT22;9607;51.600;7.558;2023-04-04T04:16:59;-2.00;99.90
18948;DHT22;9607;51.600;7.558;2023-04-04T04:19:26;-2.00;99.90
18948;DHT22;9607;51.600;7.558;2023-04-04T04:21:52;-1.90;99.90
18948;DHT22;9607;51.600;7.558;2023-04-04T04:24:19;-1.80;99.90
18948;DHT22;9607;51.600;7.558;2023-04-04T04:26:46;-1.70;99.90
18948;DHT22;9607;51.600;7.558;2023-04-04T04:29:13;-1.70;99.90
18948;DHT22;9607;51.600;7.558;2023-04-04T04:31:40;-1.70;99.90
18948;DHT22;9607;51.600;7.558;2023-04-04T04:34:08;-1.70;99.90
18948;DHT22;9607;51.600;7.558;2023-04-04T04:36:35;-1.80;99.90
18948;DHT22;9607;51.600;7.558;2023-04-04T04:39:02;-1.80;99.90
18948;DHT22;9607;51.600;7.558;2023-04-04T04:41:29;-1.90;99.90
18948;DHT22;9607;51.600;7.558;2023-04-04T04:43:56;-1.90;99.90
18948;DHT22;9607;51.600;7.558;2023-04-04T04:46:23;-2.00;99.90
18948;DHT22;9607;51.600;7.558;2023-04-04T04:48:50;-2.10;99.90
18948;DHT22;9607;51.600;7.558;2023-04-04T04:51:18;-2.10;99.90
18948;DHT22;9607;51.600;7.558;2023-04-04T04:53:45;-2.00;99.90
18948;DHT22;9607;51.600;7.558;2023-04-04T04:56:11;-2.00;99.90
18948;DHT22;9607;51.600;7.558;2023-04-04T04:58:38;-2.00;99.90
18948;DHT22;9607;51.600;7.558;2023-04-04T05:01:05;-1.90;99.90
18948;DHT22;9607;51.600;7.558;2023-04-04T05:03:32;-2.00;99.90
18948;DHT22;9607;51.600;7.558;2023-04-04T05:05:59;-2.00;99.90
18948;DHT22;9607;51.600;7.558;2023-04-04T05:08:27;-2.00;99.90
18948;DHT22;9607;51.600;7.558;2023-04-04T05:10:54;-2.00;99.90
18948;DHT22;9607;51.600;7.558;2023-04-04T05:13:21;-1.90;99.90
18948;DHT22;9607;51.600;7.558;2023-04-04T05:15:48;-1.90;99.90
18948;DHT22;9607;51.600;7.558;2023-04-04T05:18:15;-2.00;99.90
18948;DHT22;9607;51.600;7.558;2023-04-04T05:20:41;-2.00;99.90
18948;DHT22;9607;51.600;7.558;2023-04-04T05:23:08;-2.00;99.90
18948;DHT22;9607;51.600;7.558;2023-04-04T05:25:36;-2.00;99.90
18948;DHT22;9607;51.600;7.558;2023-04-04T05:28:03;-2.00;99.90
18948;DHT22;9607;51.600;7.558;2023-04-04T05:30:30;-2.00;99.90
18948;DHT22;9607;51.600;7.558;2023-04-04T05:32:57;-2.00;99.90
18948;DHT22;9607;51.600;7.558;2023-04-04T05:35:24;-1.90;99.90
18948;DHT22;9607;51.600;7.558;2023-04-04T05:37:51;-1.90;99.90
18948;DHT22;9607;51.600;7.558;2023-04-04T05:40:17;-1.80;99.90
18948;DHT22;9607;51.600;7.558;2023-04-04T05:42:54;-1.70;99.90
18948;DHT22;9607;51.600;7.558;2023-04-04T05:45:20;-1.60;99.90
18948;DHT22;9607;51.600;7.558;2023-04-04T05:47:47;-1.50;99.90
18948;DHT22;9607;51.600;7.558;2023-04-04T05:50:14;-1.40;99.90
18948;DHT22;9607;51.600;7.558;2023-04-04T05:52:41;-1.30;99.90
18948;DHT22;9607;51.600;7.558;2023-04-04T05:55:08;-1.20;99.90
18948;DHT22;9607;51.600;7.558;2023-04-04T05:57:35;-1.20;99.90
18948;DHT22;9607;51.600;7.558;2023-04-04T06:00:03;-1.10;99.90
18948;DHT22;9607;51.600;7.558;2023-04-04T06:02:31;-1.00;99.90
18948;DHT22;9607;51.600;7.558;2023-04-04T06:04:57;-1.00;99.90
18948;DHT22;9607;51.600;7.558;2023-04-04T06:07:24;-1.00;99.90
18948;DHT22;9607;51.600;7.558;2023-04-04T06:09:51;-0.90;99.90
18948;DHT22;9607;51.600;7.558;2023-04-04T06:12:18;-0.90;99.90
18948;DHT22;9607;51.600;7.558;2023-04-04T06:14:44;-0.90;99.90
18948;DHT22;9607;51.600;7.558;2023-04-04T06:17:13;-0.80;99.90
18948;DHT22;9607;51.600;7.558;2023-04-04T06:19:39;-0.70;99.90
18948;DHT22;9607;51.600;7.558;2023-04-04T06:22:06;-0.70;99.90
18948;DHT22;9607;51.600;7.558;2023-04-04T06:24:33;-0.60;99.90
18948;DHT22;9607;51.600;7.558;2023-04-04T06:27:00;-0.60;99.90
18948;DHT22;9607;51.600;7.558;2023-04-04T06:29:27;-0.50;99.90
18948;DHT22;9607;51.600;7.558;2023-04-04T06:31:53;-0.50;99.90
18948;DHT22;9607;51.600;7.558;2023-04-04T06:34:21;-0.50;99.90
18948;DHT22;9607;51.600;7.558;2023-04-04T06:36:48;-0.40;99.90
18948;DHT22;9607;51.600;7.558;2023-04-04T06:39:15;-0.30;99.90
18948;DHT22;9607;51.600;7.558;2023-04-04T06:41:42;-0.20;99.90
18948;DHT22;9607;51.600;7.558;2023-04-04T06:44:08;-0.10;99.90
18948;DHT22;9607;51.600;7.558;2023-04-04T06:46:36;0.00;99.90
18948;DHT22;9607;51.600;7.558;2023-04-04T06:49:03;0.10;99.90
18948;DHT22;9607;51.600;7.558;2023-04-04T06:51:32;0.20;99.90
18948;DHT22;9607;51.600;7.558;2023-04-04T06:53:59;0.30;99.90
18948;DHT22;9607;51.600;7.558;2023-04-04T06:56:27;0.50;99.90
18948;DHT22;9607;51.600;7.558;2023-04-04T06:58:53;0.70;99.90
18948;DHT22;9607;51.600;7.558;2023-04-04T07:01:21;0.80;99.90
18948;DHT22;9607;51.600;7.558;2023-04-04T07:03:48;1.00;99.90
18948;DHT22;9607;51.600;7.558;2023-04-04T07:06:17;1.10;99.90
18948;DHT22;9607;51.600;7.558;2023-04-04T07:08:47;1.20;99.90
18948;DHT22;9607;51.600;7.558;2023-04-04T07:11:15;1.20;99.90
18948;DHT22;9607;51.600;7.558;2023-04-04T07:13:41;1.30;99.90
18948;DHT22;9607;51.600;7.558;2023-04-04T07:16:08;1.50;99.90
18948;DHT22;9607;51.600;7.558;2023-04-04T07:18:36;1.60;99.90
18948;DHT22;9607;51.600;7.558;2023-04-04T07:21:03;1.60;99.90
18948;DHT22;9607;51.600;7.558;2023-04-04T07:23:29;1.80;99.90
18948;DHT22;9607;51.600;7.558;2023-04-04T07:25:58;1.90;99.90
18948;DHT22;9607;51.600;7.558;2023-04-04T07:28:24;2.00;99.90
18948;DHT22;9607;51.600;7.558;2023-04-04T07:30:51;2.10;99.90
18948;DHT22;9607;51.600;7.558;2023-04-04T07:33:18;2.20;99.90
18948;DHT22;9607;51.600;7.558;2023-04-04T07:35:45;2.30;99.90
18948;DHT22;9607;51.600;7.558;2023-04-04T07:38:12;2.40;99.90
18948;DHT22;9607;51.600;7.558;2023-04-04T07:40:39;2.60;99.90
18948;DHT22;9607;51.600;7.558;2023-04-04T07:43:07;2.70;99.90
18948;DHT22;9607;51.600;7.558;2023-04-04T07:45:34;2.80;99.90
18948;DHT22;9607;51.600;7.558;2023-04-04T07:48:01;2.90;99.90
18948;DHT22;9607;51.600;7.558;2023-04-04T07:50:28;3.00;99.90
18948;DHT22;9607;51.600;7.558;2023-04-04T07:52:55;3.20;99.90
18948;DHT22;9607;51.600;7.558;2023-04-04T07:55:23;3.30;99.90
18948;DHT22;9607;51.600;7.558;2023-04-04T07:57:50;3.40;99.90
18948;DHT22;9607;51.600;7.558;2023-04-04T08:00:20;3.50;99.90
18948;DHT22;9607;51.600;7.558;2023-04-04T08:02:51;3.70;99.90
18948;DHT22;9607;51.600;7.558;2023-04-04T08:05:18;3.80;99.90
18948;DHT22;9607;51.600;7.558;2023-04-04T08:07:44;4.00;99.90
18948;DHT22;9607;51.600;7.558;2023-04-04T08:10:11;4.10;99.90
18948;DHT22;9607;51.600;7.558;2023-04-04T08:12:41;4.10;99.90
18948;DHT22;9607;51.600;7.558;2023-04-04T08:15:09;4.20;99.90
18948;DHT22;9607;51.600;7.558;2023-04-04T08:17:37;4.30;99.90
18948;DHT22;9607;51.600;7.558;2023-04-04T08:20:05;4.30;99.90
18948;DHT22;9607;51.600;7.558;2023-04-04T08:22:32;4.40;99.90
18948;DHT22;9607;51.600;7.558;2023-04-04T08:24:59;4.40;99.90
18948;DHT22;9607;51.600;7.558;2023-04-04T08:27:26;4.40;99.90
18948;DHT22;9607;51.600;7.558;2023-04-04T08:29:52;4.40;99.90
18948;DHT22;9607;51.600;7.558;2023-04-04T08:32:20;4.40;99.90
18948;DHT22;9607;51.600;7.558;2023-04-04T08:34:49;4.50;99.90
18948;DHT22;9607;51.600;7.558;2023-04-04T08:37:17;4.50;99.90
18948;DHT22;9607;51.600;7.558;2023-04-04T08:39:44;4.60;99.90
18948;DHT22;9607;51.600;7.558;2023-04-04T08:42:11;4.70;99.90
18948;DHT22;9607;51.600;7.558;2023-04-04T08:44:43;4.70;99.90
18948;DHT22;9607;51.600;7.558;2023-04-04T08:47:12;4.80;99.90
18948;DHT22;9607;51.600;7.558;2023-04-04T08:49:42;4.90;99.90
18948;DHT22;9607;51.600;7.558;2023-04-04T08:52:11;5.00;99.90
18948;DHT22;9607;51.600;7.558;2023-04-04T08:54:40;5.10;99.90
18948;DHT22;9607;51.600;7.558;2023-04-04T08:57:08;5.30;99.90
18948;DHT22;9607;51.600;7.558;2023-04-04T08:59:35;5.30;99.90
18948;DHT22;9607;51.600;7.558;2023-04-04T09:02:12;5.50;99.90
18948;DHT22;9607;51.600;7.558;2023-04-04T09:04:40;5.50;99.90
18948;DHT22;9607;51.600;7.558;2023-04-04T09:07:08;5.60;99.90
18948;DHT22;9607;51.600;7.558;2023-04-04T09:09:39;5.60;99.90
18948;DHT22;9607;51.600;7.558;2023-04-04T09:12:06;5.60;99.90
18948;DHT22;9607;51.600;7.558;2023-04-04T09:14:35;5.70;99.90
18948;DHT22;9607;51.600;7.558;2023-04-04T09:17:03;5.90;99.90
18948;DHT22;9607;51.600;7.558;2023-04-04T09:19:30;5.90;99.90
18948;DHT22;9607;51.600;7.558;2023-04-04T09:21:57;6.10;99.90
18948;DHT22;9607;51.600;7.558;2023-04-04T09:24:23;6.10;99.90
18948;DHT22;9607;51.600;7.558;2023-04-04T09:27:03;6.20;99.90
18948;DHT22;9607;51.600;7.558;2023-04-04T09:29:30;6.40;99.90
18948;DHT22;9607;51.600;7.558;2023-04-04T09:31:59;6.50;99.90
18948;DHT22;9607;51.600;7.558;2023-04-04T09:34:28;6.50;99.90
18948;DHT22;9607;51.600;7.558;2023-04-04T09:36:56;6.60;99.90
18948;DHT22;9607;51.600;7.558;2023-04-04T09:39:24;6.70;99.90
18948;DHT22;9607;51.600;7.558;2023-04-04T09:41:51;6.70;99.90
18948;DHT22;9607;51.600;7.558;2023-04-04T09:44:20;6.80;99.90
18948;DHT22;9607;51.600;7.558;2023-04-04T09:46:47;6.90;99.90
18948;DHT22;9607;51.600;7.558;2023-04-04T09:49:18;6.90;99.60
18948;DHT22;9607;51.600;7.558;2023-04-04T09:51:47;7.00;99.20
18948;DHT22;9607;51.600;7.558;2023-04-04T09:54:20;7.10;98.70
18948;DHT22;9607;51.600;7.558;2023-04-04T09:56:47;7.10;97.90
18948;DHT22;9607;51.600;7.558;2023-04-04T09:59:14;7.20;97.20
18948;DHT22;9607;51.600;7.558;2023-04-04T10:01:43;7.10;97.20
18948;DHT22;9607;51.600;7.558;2023-04-04T10:04:12;7.30;97.90
18948;DHT22;9607;51.600;7.558;2023-04-04T10:06:42;7.30;96.80
18948;DHT22;9607;51.600;7.558;2023-04-04T10:09:09;7.30;96.50
18948;DHT22;9607;51.600;7.558;2023-04-04T10:11:36;7.40;96.70
18948;DHT22;9607;51.600;7.558;2023-04-04T10:14:03;7.40;96.20
18948;DHT22;9607;51.600;7.558;2023-04-04T10:16:33;7.50;96.10
18948;DHT22;9607;51.600;7.558;2023-04-04T10:19:03;7.60;96.30
18948;DHT22;9607;51.600;7.558;2023-04-04T10:21:29;7.60;95.30
18948;DHT22;9607;51.600;7.558;2023-04-04T10:23:57;7.70;94.80
18948;DHT22;9607;51.600;7.558;2023-04-04T10:26:24;7.70;93.30
18948;DHT22;9607;51.600;7.558;2023-04-04T10:28:51;7.70;92.60
18948;DHT22;9607;51.600;7.558;2023-04-04T10:31:22;7.80;92.50
18948;DHT22;9607;51.600;7.558;2023-04-04T10:34:01;7.70;90.80
18948;DHT22;9607;51.600;7.558;2023-04-04T10:36:37;7.70;90.30
18948;DHT22;9607;51.600;7.558;2023-04-04T10:39:12;7.70;91.10
18948;DHT22;9607;51.600;7.558;2023-04-04T10:41:39;7.80;92.50
18948;DHT22;9607;51.600;7.558;2023-04-04T10:44:13;7.90;93.30
18948;DHT22;9607;51.600;7.558;2023-04-04T10:46:45;8.00;93.90
18948;DHT22;9607;51.600;7.558;2023-04-04T10:49:14;8.10;93.30
18948;DHT22;9607;51.600;7.558;2023-04-04T10:51:42;8.20;92.60
18948;DHT22;9607;51.600;7.558;2023-04-04T10:54:10;8.30;92.50
18948;DHT22;9607;51.600;7.558;2023-04-04T10:56:37;8.30;92.60
18948;DHT22;9607;51.600;7.558;2023-04-04T10:59:11;8.40;92.00
18948;DHT22;9607;51.600;7.558;2023-04-04T11:01:49;8.50;91.40
18948;DHT22;9607;51.600;7.558;2023-04-04T11:04:17;8.60;91.30
18948;DHT22;9607;51.600;7.558;2023-04-04T11:07:06;8.60;91.20
18948;DHT22;9607;51.600;7.558;2023-04-04T11:09:46;8.70;91.80
18948;DHT22;9607;51.600;7.558;2023-04-04T11:12:13;8.90;91.90
18948;DHT22;9607;51.600;7.558;2023-04-04T11:14:54;9.00;91.90
18948;DHT22;9607;51.600;7.558;2023-04-04T11:20:27;9.20;91.50
18948;DHT22;9607;51.600;7.558;2023-04-04T11:23:07;9.30;92.00
18948;DHT22;9607;51.600;7.558;2023-04-04T11:25:35;9.50;91.30
18948;DHT22;9607;51.600;7.558;2023-04-04T11:28:07;9.60;90.10
18948;DHT22;9607;51.600;7.558;2023-04-04T11:30:40;9.70;89.00
18948;DHT22;9607;51.600;7.558;2023-04-04T11:33:10;9.80;89.50
18948;DHT22;9607;51.600;7.558;2023-04-04T11:35:38;9.90;89.50
18948;DHT22;9607;51.600;7.558;2023-04-04T11:38:14;10.00;87.70
18948;DHT22;9607;51.600;7.558;2023-04-04T11:40:43;10.10;85.20
18948;DHT22;9607;51.600;7.558;2023-04-04T11:43:17;10.10;81.70
18948;DHT22;9607;51.600;7.558;2023-04-04T11:45:45;10.20;83.30
18948;DHT22;9607;51.600;7.558;2023-04-04T11:48:14;10.40;84.70
18948;DHT22;9607;51.600;7.558;2023-04-04T11:50:42;10.50;85.60
18948;DHT22;9607;51.600;7.558;2023-04-04T11:53:15;10.70;82.50
18948;DHT22;9607;51.600;7.558;2023-04-04T11:55:43;11.00;85.00
18948;DHT22;9607;51.600;7.558;2023-04-04T11:58:13;11.20;80.70
18948;DHT22;9607;51.600;7.558;2023-04-04T12:00:41;11.10;65.20
18948;DHT22;9607;51.600;7.558;2023-04-04T12:03:10;11.10;67.50
18948;DHT22;9607;51.600;7.558;2023-04-04T12:05:37;11.10;68.20
18948;DHT22;9607;51.600;7.558;2023-04-04T12:08:06;11.20;67.60
18948;DHT22;9607;51.600;7.558;2023-04-04T12:10:36;11.30;67.70
18948;DHT22;9607;51.600;7.558;2023-04-04T12:13:05;11.50;71.00
18948;DHT22;9607;51.600;7.558;2023-04-04T12:15:33;11.90;71.60
18948;DHT22;9607;51.600;7.558;2023-04-04T12:18:00;12.30;71.90
18948;DHT22;9607;51.600;7.558;2023-04-04T12:20:29;13.30;71.00
18948;DHT22;9607;51.600;7.558;2023-04-04T12:22:56;14.70;65.10
18948;DHT22;9607;51.600;7.558;2023-04-04T12:25:24;16.20;59.80
18948;DHT22;9607;51.600;7.558;2023-04-04T12:27:54;17.60;54.80
18948;DHT22;9607;51.600;7.558;2023-04-04T12:30:22;18.80;51.90
18948;DHT22;9607;51.600;7.558;2023-04-04T12:32:49;19.80;49.10
18948;DHT22;9607;51.600;7.558;2023-04-04T12:35:17;20.80;46.00
18948;DHT22;9607;51.600;7.558;2023-04-04T12:38:00;21.80;44.00
18948;DHT22;9607;51.600;7.558;2023-04-04T12:40:31;22.60;42.60
18948;DHT22;9607;51.600;7.558;2023-04-04T12:43:05;23.20;40.20
18948;DHT22;9607;51.600;7.558;2023-04-04T12:45:36;23.80;38.70
18948;DHT22;9607;51.600;7.558;2023-04-04T12:48:09;24.30;36.10
18948;DHT22;9607;51.600;7.558;2023-04-04T12:50:48;24.90;33.80
18948;DHT22;9607;51.600;7.558;2023-04-04T12:53:19;24.90;31.80
18948;DHT22;9607;51.600;7.558;2023-04-04T12:55:47;24.90;32.20
18948;DHT22;9607;51.600;7.558;2023-04-04T12:58:16;24.90;33.00
18948;DHT22;9607;51.600;7.558;2023-04-04T13:00:43;25.00;33.30
18948;DHT22;9607;51.600;7.558;2023-04-04T13:03:11;24.80;33.20
18948;DHT22;9607;51.600;7.558;2023-04-04T13:05:39;24.40;32.60
18948;DHT22;9607;51.600;7.558;2023-04-04T13:08:08;24.00;33.20
18948;DHT22;9607;51.600;7.558;2023-04-04T13:10:58;23.50;34.00
18948;DHT22;9607;51.600;7.558;2023-04-04T13:13:35;23.10;34.00
18948;DHT22;9607;51.600;7.558;2023-04-04T13:16:06;23.00;33.60
18948;DHT22;9607;51.600;7.558;2023-04-04T13:18:35;22.60;33.10
18948;DHT22;9607;51.600;7.558;2023-04-04T13:21:04;22.20;34.60
18948;DHT22;9607;51.600;7.558;2023-04-04T13:23:33;21.50;35.10
18948;DHT22;9607;51.600;7.558;2023-04-04T13:26:00;21.20;36.30
18948;DHT22;9607;51.600;7.558;2023-04-04T13:28:28;20.90;36.00
18948;DHT22;9607;51.600;7.558;2023-04-04T13:31:01;20.80;35.60
18948;DHT22;9607;51.600;7.558;2023-04-04T13:33:28;20.60;36.10
18948;DHT22;9607;51.600;7.558;2023-04-04T13:35:56;20.20;37.20
18948;DHT22;9607;51.600;7.558;2023-04-04T13:38:24;19.90;36.70
18948;DHT22;9607;51.600;7.558;2023-04-04T13:40:50;19.30;36.80
18948;DHT22;9607;51.600;7.558;2023-04-04T13:43:17;19.00;37.80
18948;DHT22;9607;51.600;7.558;2023-04-04T13:45:44;18.90;39.50
18948;DHT22;9607;51.600;7.558;2023-04-04T13:48:13;18.80;38.30
18948;DHT22;9607;51.600;7.558;2023-04-04T13:50:41;18.80;39.40
18948;DHT22;9607;51.600;7.558;2023-04-04T13:53:08;18.80;39.00
18948;DHT22;9607;51.600;7.558;2023-04-04T13:55:35;18.60;38.00
18948;DHT22;9607;51.600;7.558;2023-04-04T13:58:02;18.30;38.30
18948;DHT22;9607;51.600;7.558;2023-04-04T14:00:29;17.90;38.10
18948;DHT22;9607;51.600;7.558;2023-04-04T14:02:56;17.70;40.00
18948;DHT22;9607;51.600;7.558;2023-04-04T14:05:24;17.80;40.70
18948;DHT22;9607;51.600;7.558;2023-04-04T14:07:51;17.80;41.10
18948;DHT22;9607;51.600;7.558;2023-04-04T14:10:18;17.70;42.00
18948;DHT22;9607;51.600;7.558;2023-04-04T14:12:45;17.70;43.10
18948;DHT22;9607;51.600;7.558;2023-04-04T14:15:12;18.00;41.00
18948;DHT22;9607;51.600;7.558;2023-04-04T14:17:39;18.70;40.30
18948;DHT22;9607;51.600;7.558;2023-04-04T14:20:06;19.00;39.00
18948;DHT22;9607;51.600;7.558;2023-04-04T14:22:35;18.90;39.20
18948;DHT22;9607;51.600;7.558;2023-04-04T14:25:02;19.30;40.40
18948;DHT22;9607;51.600;7.558;2023-04-04T14:27:29;20.10;39.00
18948;DHT22;9607;51.600;7.558;2023-04-04T14:29:56;20.50;37.60
18948;DHT22;9607;51.600;7.558;2023-04-04T14:32:23;20.10;36.70
18948;DHT22;9607;51.600;7.558;2023-04-04T14:34:50;19.50;35.80
18948;DHT22;9607;51.600;7.558;2023-04-04T14:37:17;18.30;36.60
18948;DHT22;9607;51.600;7.558;2023-04-04T14:39:46;17.40;39.40
18948;DHT22;9607;51.600;7.558;2023-04-04T14:42:13;17.40;42.00
18948;DHT22;9607;51.600;7.558;2023-04-04T14:44:39;18.10;42.30
18948;DHT22;9607;51.600;7.558;2023-04-04T14:47:07;18.70;40.10
18948;DHT22;9607;51.600;7.558;2023-04-04T14:49:33;19.20;39.70
18948;DHT22;9607;51.600;7.558;2023-04-04T14:52:00;19.80;37.90
18948;DHT22;9607;51.600;7.558;2023-04-04T14:54:27;20.30;35.70
18948;DHT22;9607;51.600;7.558;2023-04-04T14:56:56;20.60;35.30
18948;DHT22;9607;51.600;7.558;2023-04-04T14:59:23;20.80;34.10
18948;DHT22;9607;51.600;7.558;2023-04-04T15:01:50;21.00;35.00
18948;DHT22;9607;51.600;7.558;2023-04-04T15:04:16;21.20;34.40
18948;DHT22;9607;51.600;7.558;2023-04-04T15:06:43;21.30;34.70
18948;DHT22;9607;51.600;7.558;2023-04-04T15:09:10;22.00;35.70
18948;DHT22;9607;51.600;7.558;2023-04-04T15:11:38;22.80;34.80
18948;DHT22;9607;51.600;7.558;2023-04-04T15:14:07;23.30;33.40
18948;DHT22;9607;51.600;7.558;2023-04-04T15:16:34;23.60;33.40
18948;DHT22;9607;51.600;7.558;2023-04-04T15:19:01;24.50;33.40
18948;DHT22;9607;51.600;7.558;2023-04-04T15:21:28;25.60;31.10
18948;DHT22;9607;51.600;7.558;2023-04-04T15:23:56;26.70;31.30
18948;DHT22;9607;51.600;7.558;2023-04-04T15:26:22;27.60;29.80
18948;DHT22;9607;51.600;7.558;2023-04-04T15:28:50;28.30;29.00
18948;DHT22;9607;51.600;7.558;2023-04-04T15:31:18;28.50;26.60
18948;DHT22;9607;51.600;7.558;2023-04-04T15:33:45;28.90;27.20
18948;DHT22;9607;51.600;7.558;2023-04-04T15:36:12;29.50;26.30
18948;DHT22;9607;51.600;7.558;2023-04-04T15:38:39;29.10;25.90
18948;DHT22;9607;51.600;7.558;2023-04-04T15:41:06;29.40;26.40
18948;DHT22;9607;51.600;7.558;2023-04-04T15:43:34;29.60;25.60
18948;DHT22;9607;51.600;7.558;2023-04-04T15:46:01;30.00;26.50
18948;DHT22;9607;51.600;7.558;2023-04-04T15:48:29;30.80;26.30
18948;DHT22;9607;51.600;7.558;2023-04-04T15:50:58;31.30;25.30
18948;DHT22;9607;51.600;7.558;2023-04-04T15:53:28;32.10;25.60
18948;DHT22;9607;51.600;7.558;2023-04-04T15:55:55;33.20;25.60
18948;DHT22;9607;51.600;7.558;2023-04-04T15:58:22;34.10;24.50